Time;durP1;ratioP1;P1;durP2;ratioP2;P2;SDS_P1;SDS_P2;PMS_P1;PMS_P2;Temp;Humidity;BMP_temperature;BMP_pressure;BME280_temperature;BME280_humidity;BME280_pressure;Samples;Min_cycle;Max_cycle;Signal;HPM_P1;HPM_P2
2021/04/24 00:01:30;;;;;;;22.83;10.20;;;9.30;68.00;;;;;;5046327;28;20021;-84
2021/04/24 00:04:00;;;;;;;19.00;9.97;;;9.20;68.40;;;;;;5046424;28;20123;-84
2021/04/24 00:06:27;;;;;;;18.90;9.70;;;9.20;68.70;;;;;;5047955;28;20060;-83
2021/04/24 00:08:53;;;;;;;24.05;9.25;;;9.20;68.70;;;;;;5046218;28;20029;-84
2021/04/24 00:11:20;;;;;;;27.13;9.57;;;9.20;68.90;;;;;;5029725;28;20116;-82
2021/04/24 00:13:46;;;;;;;26.95;11.48;;;9.10;69.10;;;;;;5046272;28;20025;-83
2021/04/24 00:16:13;;;;;;;23.83;11.50;;;9.10;69.30;;;;;;5029603;28;20033;-83
2021/04/24 00:18:39;;;;;;;21.65;11.55;;;9.10;69.50;;;;;;5046254;28;20361;-84
2021/04/24 00:21:06;;;;;;;22.17;11.15;;;9.10;69.90;;;;;;5029561;28;20044;-83
2021/04/24 00:23:32;;;;;;;33.97;12.73;;;9.10;70.20;;;;;;5029638;28;20037;-81
2021/04/24 00:25:58;;;;;;;23.23;12.65;;;9.10;70.60;;;;;;5046150;28;20034;-83
2021/04/24 00:28:23;;;;;;;27.42;12.43;;;9.10;70.90;;;;;;5047324;28;20033;-84
2021/04/24 00:30:49;;;;;;;23.75;12.10;;;9.20;71.00;;;;;;5029216;28;20025;-82
2021/04/24 00:33:15;;;;;;;28.25;12.98;;;9.20;71.10;;;;;;5013095;28;20483;-83
2021/04/24 00:35:41;;;;;;;31.15;12.85;;;9.20;71.40;;;;;;5045801;28;20029;-82
2021/04/24 00:38:07;;;;;;;26.15;13.80;;;9.20;71.80;;;;;;5047446;28;20039;-83
2021/04/24 00:40:33;;;;;;;22.38;12.20;;;9.20;72.20;;;;;;5046456;28;20029;-83
2021/04/24 00:42:59;;;;;;;24.10;11.50;;;9.10;72.20;;;;;;5049442;28;20068;-84
2021/04/24 00:45:25;;;;;;;21.60;10.80;;;9.00;72.40;;;;;;5051218;28;20062;-83
2021/04/24 00:47:52;;;;;;;20.48;11.50;;;9.00;72.50;;;;;;5033290;28;20049;-84
2021/04/24 00:50:22;;;;;;;19.45;11.50;;;8.90;72.70;;;;;;5051400;28;20040;-83
2021/04/24 00:52:48;;;;;;;20.50;10.95;;;8.90;73.10;;;;;;5049719;28;20404;-83
2021/04/24 00:55:14;;;;;;;22.92;11.20;;;8.80;73.30;;;;;;5050738;28;20040;-83
2021/04/24 00:57:41;;;;;;;21.98;11.57;;;8.70;73.70;;;;;;5049573;28;20032;-83
2021/04/24 01:00:09;;;;;;;21.30;12.68;;;8.70;74.00;;;;;;5049495;28;20498;-84
2021/04/24 01:02:37;;;;;;;24.20;12.50;;;8.60;74.40;;;;;;5049426;28;20048;-83
2021/04/24 01:05:06;;;;;;;20.35;11.93;;;8.60;74.70;;;;;;5049662;28;20025;-84
2021/04/24 01:07:32;;;;;;;24.48;12.50;;;8.60;75.00;;;;;;5049432;28;20032;-82
2021/04/24 01:09:58;;;;;;;22.45;11.90;;;8.70;74.90;;;;;;5049332;28;20033;-84
2021/04/24 01:12:24;;;;;;;26.73;11.98;;;8.70;75.00;;;;;;5016333;28;20398;-84
2021/04/24 01:14:49;;;;;;;20.42;10.75;;;8.70;75.00;;;;;;5032970;28;20033;-83
2021/04/24 01:17:15;;;;;;;20.42;10.55;;;8.70;75.10;;;;;;5049299;28;20039;-84
2021/04/24 01:19:41;;;;;;;23.85;11.40;;;8.80;75.20;;;;;;5049008;28;20033;-84
2021/04/24 01:22:10;;;;;;;19.00;10.57;;;8.80;75.30;;;;;;5049163;28;20091;-83
2021/04/24 01:24:36;;;;;;;;;;;8.70;75.50;;;;;;5033143;28;20087;-83
2021/04/24 01:27:04;;;;;;;23.10;10.88;;;8.70;74.80;;;;;;5049308;28;19912;-83
2021/04/24 01:29:30;;;;;;;22.17;10.35;;;8.70;74.70;;;;;;5049082;28;20083;-84
2021/04/24 01:31:59;;;;;;;18.70;10.70;;;8.70;75.00;;;;;;5048953;28;20021;-84
2021/04/24 01:34:25;;;;;;;19.75;9.88;;;8.60;75.20;;;;;;5049208;28;20120;-84
2021/04/24 01:36:51;;;;;;;19.60;11.23;;;8.60;75.30;;;;;;5032549;28;20120;-84
2021/04/24 01:39:16;;;;;;;19.05;12.10;;;8.60;75.50;;;;;;5015815;28;20044;-83
2021/04/24 01:41:42;;;;;;;24.17;10.93;;;8.50;76.00;;;;;;5048447;28;20083;-83
2021/04/24 01:44:08;;;;;;;21.95;11.10;;;8.50;76.40;;;;;;5049069;28;20025;-83
2021/04/24 01:46:33;;;;;;;30.30;11.98;;;8.40;76.60;;;;;;5032126;28;20475;-84
2021/04/24 01:48:59;;;;;;;28.50;13.05;;;8.40;76.70;;;;;;5032219;28;20021;-83
2021/04/24 01:51:25;;;;;;;27.70;14.23;;;8.40;77.00;;;;;;5015122;28;20495;-84
2021/04/24 01:53:53;;;;;;;31.73;14.60;;;8.40;77.30;;;;;;5048825;28;20029;-84
2021/04/24 01:56:20;;;;;;;21.85;11.75;;;8.30;77.80;;;;;;5048465;28;20029;-83
2021/04/24 01:58:46;;;;;;;28.30;12.55;;;8.20;78.20;;;;;;5048573;28;20430;-84
2021/04/24 02:01:12;;;;;;;27.95;12.70;;;8.20;78.70;;;;;;5048481;28;20029;-84
2021/04/24 02:03:38;;;;;;;25.90;12.55;;;8.30;78.80;;;;;;5048401;28;20063;-83
2021/04/24 02:06:05;;;;;;;29.73;12.88;;;8.20;78.70;;;;;;5049889;28;20415;-84
2021/04/24 02:08:38;;;;;;;19.80;11.70;;;8.20;78.80;;;;;;5031761;28;20033;-82
2021/04/24 02:11:05;;;;;;;22.50;11.10;;;8.20;78.90;;;;;;5049464;28;20098;-83
2021/04/24 02:13:35;;;;;;;23.05;11.27;;;8.20;78.70;;;;;;5031846;28;20089;-83
2021/04/24 02:16:01;;;;;;;23.20;11.20;;;8.20;78.80;;;;;;5048187;28;20509;-83
2021/04/24 02:18:28;;;;;;;20.33;10.80;;;8.10;78.70;;;;;;5048171;28;20040;-83
2021/04/24 02:20:54;;;;;;;31.08;11.90;;;8.10;78.70;;;;;;5031605;28;20082;-84
2021/04/24 02:23:20;;;;;;;17.17;10.18;;;8.10;78.80;;;;;;5049017;28;20400;-83
2021/04/24 02:25:46;;;;;;;20.63;10.35;;;8.10;79.00;;;;;;5049198;28;20122;-83
2021/04/24 02:28:14;;;;;;;25.13;11.60;;;8.00;79.20;;;;;;5049232;28;20644;-84
2021/04/24 02:30:40;;;;;;;25.75;11.50;;;8.00;79.40;;;;;;5049733;28;20420;-84
2021/04/24 02:33:06;;;;;;;19.40;10.57;;;8.00;79.40;;;;;;5048056;28;20067;-84
2021/04/24 02:35:36;;;;;;;22.30;10.65;;;8.00;79.60;;;;;;5047922;28;20430;-83
2021/04/24 02:38:01;;;;;;;20.38;11.48;;;8.00;79.70;;;;;;5047965;28;20423;-82
2021/04/24 02:40:27;;;;;;;23.88;11.63;;;8.00;79.80;;;;;;5031022;28;20133;-84
2021/04/24 02:42:53;;;;;;;16.92;9.98;;;8.00;79.80;;;;;;5030783;28;20053;-84
2021/04/24 02:45:19;;;;;;;20.92;10.80;;;8.00;79.90;;;;;;5030947;28;20025;-83
2021/04/24 02:47:45;;;;;;;20.73;11.13;;;8.00;79.90;;;;;;5047555;28;20037;-84
2021/04/24 02:50:16;;;;;;;23.63;10.52;;;8.00;79.90;;;;;;5048823;28;20031;-83
2021/04/24 02:52:43;;;;;;;19.63;10.55;;;8.00;79.90;;;;;;5047409;28;20020;-83
2021/04/24 02:55:09;;;;;;;19.27;10.32;;;7.90;79.90;;;;;;5030869;28;20086;-84
2021/04/24 02:57:35;;;;;;;20.67;11.05;;;7.90;79.90;;;;;;5030918;28;20033;-83
2021/04/24 03:00:01;;;;;;;22.90;11.05;;;7.90;80.00;;;;;;5048610;28;20097;-84
2021/04/24 03:02:26;;;;;;;17.58;9.93;;;7.90;80.10;;;;;;5030601;28;20040;-84
2021/04/24 03:04:52;;;;;;;20.83;10.90;;;7.90;80.10;;;;;;5013637;28;20071;-84
2021/04/24 03:07:18;;;;;;;18.38;11.43;;;7.90;80.30;;;;;;5047107;28;20430;-82
2021/04/24 03:09:44;;;;;;;17.13;10.98;;;7.90;80.50;;;;;;5047332;28;20033;-84
2021/04/24 03:12:09;;;;;;;16.90;10.05;;;7.80;80.60;;;;;;5030555;28;20479;-83
2021/04/24 03:14:35;;;;;;;16.58;9.85;;;7.80;80.90;;;;;;5047077;28;20526;-84
2021/04/24 03:17:01;;;;;;;16.88;10.10;;;7.80;81.00;;;;;;5030514;28;20037;-84
2021/04/24 03:19:27;;;;;;;19.02;10.55;;;7.80;81.00;;;;;;5030570;28;20060;-84
2021/04/24 03:21:52;;;;;;;15.57;10.52;;;7.80;81.10;;;;;;5046875;28;20067;-84
2021/04/24 03:24:18;;;;;;;19.92;11.00;;;7.80;81.20;;;;;;5013922;28;20068;-84
2021/04/24 03:26:44;;;;;;;19.02;10.18;;;7.80;81.40;;;;;;5014128;28;20067;-84
2021/04/24 03:29:10;;;;;;;22.80;10.60;;;7.80;81.40;;;;;;5030395;28;20035;-84
2021/04/24 03:31:35;;;;;;;23.85;11.45;;;7.80;81.60;;;;;;5013724;28;20482;-83
2021/04/24 03:34:01;;;;;;;26.25;11.57;;;7.90;82.00;;;;;;5030314;28;20061;-85
2021/04/24 03:36:27;;;;;;;22.48;10.65;;;7.90;82.30;;;;;;5046699;28;20032;-83
2021/04/24 03:38:53;;;;;;;19.80;10.88;;;7.90;82.60;;;;;;5047091;28;20026;-84
2021/04/24 03:41:19;;;;;;;25.60;12.52;;;7.90;82.70;;;;;;5046419;28;20032;-84
2021/04/24 03:43:44;;;;;;;22.05;11.88;;;7.90;82.80;;;;;;5046837;28;20041;-83
2021/04/24 03:46:10;;;;;;;19.13;10.98;;;8.00;83.00;;;;;;5013530;28;20024;-84
2021/04/24 03:48:36;;;;;;;21.95;12.15;;;8.00;83.70;;;;;;5046482;28;20560;-85
2021/04/24 03:51:02;;;;;;;27.27;11.32;;;8.00;83.40;;;;;;5029910;28;20357;-83
2021/04/24 03:53:29;;;;;;;25.20;12.90;;;8.10;83.60;;;;;;5046498;28;20037;-83
2021/04/24 03:55:55;;;;;;;26.60;12.15;;;8.10;84.00;;;;;;5046481;28;20052;-83
2021/04/24 03:58:21;;;;;;;24.73;13.00;;;8.00;84.60;;;;;;5046398;28;20506;-84
2021/04/24 04:00:47;;;;;;;24.40;11.38;;;8.10;84.90;;;;;;5046295;28;20029;-83
2021/04/24 04:03:13;;;;;;;21.85;12.55;;;8.10;85.00;;;;;;5029916;28;20061;-84
2021/04/24 04:05:44;;;;;;;25.85;12.10;;;8.20;85.10;;;;;;5046572;28;20021;-84
2021/04/24 04:08:13;;;;;;;24.00;12.38;;;8.20;85.70;;;;;;5047707;28;20025;-83
2021/04/24 04:10:40;;;;;;;24.85;11.07;;;8.10;86.00;;;;;;5046083;28;20021;-83
2021/04/24 04:13:07;;;;;;;27.40;11.98;;;8.20;86.20;;;;;;5029859;28;20163;-84
2021/04/24 04:15:33;;;;;;;33.72;12.90;;;8.20;86.20;;;;;;5032038;28;20032;-83
2021/04/24 04:18:11;;;;;;;24.60;12.25;;;8.20;86.30;;;;;;5033835;28;20029;-83
2021/04/24 04:20:39;;;;;;;25.50;11.57;;;8.20;86.80;;;;;;5050165;28;20035;-84
2021/04/24 04:23:05;;;;;;;24.33;11.85;;;8.20;86.90;;;;;;5050077;28;20029;-85
2021/04/24 04:25:31;;;;;;;22.98;11.70;;;8.20;87.10;;;;;;5033790;28;20036;-84
2021/04/24 04:27:56;;;;;;;28.83;13.68;;;8.20;87.20;;;;;;5033677;28;20035;-84
2021/04/24 04:30:23;;;;;;;19.38;11.07;;;8.20;87.30;;;;;;5033832;28;20022;-83
2021/04/24 04:32:49;;;;;;;21.92;10.80;;;8.20;87.30;;;;;;5050027;28;20060;-83
2021/04/24 04:35:16;;;;;;;24.15;10.80;;;8.20;86.90;;;;;;5050375;28;20383;-83
2021/04/24 04:37:42;;;;;;;24.88;10.93;;;8.20;86.70;;;;;;5033429;28;20033;-83
2021/04/24 04:40:11;;;;;;;23.60;12.68;;;8.10;86.70;;;;;;5051190;28;20503;-83
2021/04/24 04:42:37;;;;;;;24.80;11.65;;;8.10;87.00;;;;;;5050768;28;20057;-83
2021/04/24 04:45:04;;;;;;;30.25;12.93;;;8.10;87.40;;;;;;5033513;28;20041;-84
2021/04/24 04:47:30;;;;;;;29.02;13.23;;;8.10;88.00;;;;;;5050135;28;20029;-83
2021/04/24 04:49:55;;;;;;;24.63;11.48;;;8.10;88.30;;;;;;5033087;28;20494;-83
2021/04/24 04:52:21;;;;;;;25.05;12.52;;;8.10;88.40;;;;;;5049327;28;20028;-84
2021/04/24 04:54:47;;;;;;;24.30;12.50;;;8.10;88.50;;;;;;5016666;28;20083;-83
2021/04/24 04:57:13;;;;;;;20.95;11.55;;;8.10;88.80;;;;;;5016784;28;20124;-84
2021/04/24 04:59:38;;;;;;;26.63;12.52;;;8.10;89.10;;;;;;5033009;28;20428;-84
2021/04/24 05:02:04;;;;;;;22.83;12.50;;;8.10;89.30;;;;;;5032734;28;20076;-83
2021/04/24 05:04:30;;;;;;;30.58;11.60;;;8.10;89.30;;;;;;5049399;28;20067;-83
2021/04/24 05:06:55;;;;;;;29.20;12.10;;;8.10;89.30;;;;;;5049356;28;20016;-84
2021/04/24 05:09:24;;;;;;;30.17;11.45;;;8.10;89.30;;;;;;5049560;28;20029;-83
2021/04/24 05:11:50;;;;;;;20.80;10.63;;;8.10;89.20;;;;;;5050526;28;20513;-84
2021/04/24 05:14:19;;;;;;;18.70;10.20;;;8.00;88.80;;;;;;5032839;28;20029;-83
2021/04/24 05:16:45;;;;;;;26.13;11.13;;;8.00;88.70;;;;;;5050502;28;20472;-84
2021/04/24 05:19:11;;;;;;;23.33;10.38;;;7.90;88.60;;;;;;5049194;28;20036;-83
2021/04/24 05:21:37;;;;;;;22.75;10.70;;;7.90;88.80;;;;;;5032527;28;20067;-84
2021/04/24 05:24:04;;;;;;;23.00;12.27;;;7.90;88.90;;;;;;5016105;28;20029;-83
2021/04/24 05:26:29;;;;;;;22.20;12.00;;;7.80;88.90;;;;;;5031871;28;20116;-84
2021/04/24 05:28:55;;;;;;;21.02;12.27;;;7.80;89.00;;;;;;5032662;28;20108;-84
2021/04/24 05:31:21;;;;;;;28.05;12.95;;;7.90;89.30;;;;;;5032479;28;20414;-84
2021/04/24 05:33:47;;;;;;;25.02;11.63;;;7.90;89.60;;;;;;5015913;28;20551;-83
2021/04/24 05:36:15;;;;;;;19.83;11.05;;;8.00;89.80;;;;;;5048875;28;20138;-84
2021/04/24 05:38:41;;;;;;;27.48;12.38;;;8.00;89.80;;;;;;5032697;28;20091;-84
2021/04/24 05:41:10;;;;;;;32.65;12.35;;;8.10;89.80;;;;;;5048752;28;20430;-83
2021/04/24 05:43:36;;;;;;;27.63;12.55;;;8.10;89.80;;;;;;5032480;28;20403;-84
2021/04/24 05:46:02;;;;;;;25.88;10.63;;;8.20;89.70;;;;;;5032321;28;20025;-83
2021/04/24 05:48:29;;;;;;;31.50;12.30;;;8.30;89.70;;;;;;5015665;28;20021;-84
2021/04/24 05:50:54;;;;;;;25.63;11.63;;;8.30;89.40;;;;;;5048635;28;20020;-83
2021/04/24 05:53:20;;;;;;;19.42;9.65;;;8.30;89.20;;;;;;5032115;28;20519;-84
2021/04/24 05:55:46;;;;;;;19.45;10.13;;;8.40;89.30;;;;;;5049834;28;20040;-83
2021/04/24 05:58:12;;;;;;;18.83;8.93;;;8.40;89.10;;;;;;5015459;28;20029;-83
2021/04/24 06:00:37;;;;;;;22.45;10.23;;;8.40;88.90;;;;;;5048375;28;20029;-84
2021/04/24 06:03:03;;;;;;;22.58;12.43;;;8.40;88.90;;;;;;5048344;28;20029;-83
2021/04/24 06:05:29;;;;;;;24.20;11.77;;;8.40;89.20;;;;;;5031942;28;20028;-83
2021/04/24 06:07:55;;;;;;;27.92;11.18;;;8.50;89.70;;;;;;5031996;28;20518;-81
2021/04/24 06:10:20;;;;;;;28.27;12.60;;;8.50;90.00;;;;;;5032392;28;20045;-84
2021/04/24 06:12:48;;;;;;;22.85;11.38;;;8.60;90.00;;;;;;5031536;28;20488;-83
2021/04/24 06:15:15;;;;;;;24.05;10.05;;;8.80;90.00;;;;;;5048322;28;20091;-83
2021/04/24 06:17:41;;;;;;;21.45;10.52;;;8.90;89.80;;;;;;5047988;28;20036;-83
2021/04/24 06:20:09;;;;;;;20.13;10.70;;;9.00;89.60;;;;;;5047934;28;20029;-84
2021/04/24 06:22:36;;;;;;;13.93;8.32;;;9.00;89.30;;;;;;5031230;28;20029;-84
2021/04/24 06:25:03;;;;;;;20.48;9.00;;;9.10;89.00;;;;;;5048057;28;20064;-82
2021/04/24 06:27:29;;;;;;;19.30;9.38;;;9.10;88.90;;;;;;5049035;28;20021;-83
2021/04/24 06:29:55;;;;;;;22.33;9.80;;;9.20;89.10;;;;;;5031292;28;20032;-83
2021/04/24 06:32:21;;;;;;;20.35;9.60;;;9.20;89.30;;;;;;5032093;28;20074;-82
2021/04/24 06:34:46;;;;;;;15.15;9.25;;;9.20;89.50;;;;;;5047766;28;20132;-83
2021/04/24 06:37:12;;;;;;;26.15;10.35;;;9.40;89.70;;;;;;5047984;28;20040;-83
2021/04/24 06:39:38;;;;;;;20.40;8.73;;;9.40;89.50;;;;;;5047988;28;20025;-83
2021/04/24 06:42:04;;;;;;;21.38;10.73;;;9.60;89.50;;;;;;5048965;28;20052;-85
2021/04/24 06:44:30;;;;;;;19.63;9.70;;;9.70;89.30;;;;;;5014608;28;20059;-82
2021/04/24 06:46:55;;;;;;;17.33;9.02;;;9.80;89.40;;;;;;5047620;28;20662;-84
2021/04/24 06:49:21;;;;;;;20.80;8.65;;;9.80;89.50;;;;;;5047716;28;20515;-83
2021/04/24 06:51:47;;;;;;;16.88;8.40;;;10.00;89.60;;;;;;5031311;28;20024;-82
2021/04/24 06:54:13;;;;;;;16.02;8.07;;;10.10;89.40;;;;;;5047794;28;20124;-83
2021/04/24 06:56:39;;;;;;;20.75;8.63;;;10.20;89.10;;;;;;5047608;28;20025;-83
2021/04/24 06:59:05;;;;;;;14.50;8.48;;;10.30;88.90;;;;;;5048821;28;20039;-83
2021/04/24 07:01:31;;;;;;;17.88;8.32;;;10.40;88.70;;;;;;5047371;28;20483;-83
2021/04/24 07:03:57;;;;;;;17.48;8.77;;;10.40;88.30;;;;;;5030642;28;20040;-84
2021/04/24 07:06:23;;;;;;;18.13;9.00;;;10.60;88.10;;;;;;5047822;28;20116;-84
2021/04/24 07:08:48;;;;;;;15.02;8.35;;;10.70;87.90;;;;;;5013824;28;20065;-82
2021/04/24 07:11:14;;;;;;;17.45;8.35;;;10.80;87.80;;;;;;5030532;28;20029;-83
2021/04/24 07:13:40;;;;;;;17.85;7.75;;;11.00;88.00;;;;;;5048201;28;20388;-84
2021/04/24 07:16:10;;;;;;;15.88;8.55;;;11.60;88.80;;;;;;5045926;28;20060;-84
2021/04/24 07:18:35;;;;;;;;;;;12.40;87.50;;;;;;5048470;28;20112;-83
2021/04/24 07:21:01;;;;;;;23.88;7.95;;;13.10;84.20;;;;;;5030058;28;20006;-83
2021/04/24 07:23:27;;;;;;;13.30;7.13;;;13.40;82.00;;;;;;5046362;28;20060;-85
2021/04/24 07:25:54;;;;;;;12.52;6.72;;;13.50;80.90;;;;;;5013534;28;20031;-84
2021/04/24 07:28:19;;;;;;;12.00;6.88;;;14.00;81.00;;;;;;5029837;28;20025;-82
2021/04/24 07:30:45;;;;;;;17.98;6.82;;;14.40;79.10;;;;;;5029905;28;20452;-83
2021/04/24 07:33:11;;;;;;;15.75;7.00;;;14.70;77.70;;;;;;5046198;28;20037;-83
2021/04/24 07:35:37;;;;;;;12.52;6.03;;;15.00;78.50;;;;;;5029689;28;20063;-82
2021/04/24 07:38:03;;;;;;;12.70;6.72;;;16.10;79.80;;;;;;5029369;28;20028;-82
2021/04/24 07:40:29;;;;;;;12.00;6.15;;;17.90;78.10;;;;;;5045906;28;20452;-82
2021/04/24 07:42:55;;;;;;;13.55;6.93;;;19.70;74.50;;;;;;5047255;28;20124;-82
2021/04/24 07:45:20;;;;;;;14.50;6.53;;;21.30;70.20;;;;;;5029356;28;20063;-85
2021/04/24 07:47:48;;;;;;;15.75;5.78;;;22.60;66.10;;;;;;5030375;28;20407;-82
2021/04/24 07:50:18;;;;;;;14.63;5.68;;;23.60;62.80;;;;;;5045360;28;20024;-85
2021/04/24 07:52:44;;;;;;;14.32;6.63;;;24.50;59.80;;;;;;5045714;28;20065;-79
2021/04/24 07:55:10;;;;;;;18.48;6.85;;;25.30;57.30;;;;;;5046987;28;20538;-83
2021/04/24 07:57:35;;;;;;;13.98;5.53;;;25.90;55.40;;;;;;5047000;28;20037;-85
2021/04/24 08:00:03;;;;;;;16.88;6.05;;;26.20;53.80;;;;;;5045474;28;20080;-85
2021/04/24 08:02:29;;;;;;;11.82;5.18;;;26.70;52.30;;;;;;5045709;28;20391;-84
2021/04/24 08:04:54;;;;;;;9.65;3.90;;;26.80;50.60;;;;;;5028725;28;20096;-84
2021/04/24 08:07:20;;;;;;;9.82;4.68;;;26.80;49.00;;;;;;5029284;28;20443;-84
2021/04/24 08:09:46;;;;;;;20.65;6.00;;;27.00;48.20;;;;;;5045316;28;20116;-86
2021/04/24 08:12:12;;;;;;;11.48;4.15;;;27.50;47.00;;;;;;5012528;28;20036;-85
2021/04/24 08:14:37;;;;;;;8.93;4.45;;;27.80;46.20;;;;;;5045313;28;20248;-85
2021/04/24 08:17:03;;;;;;;9.27;4.70;;;27.80;45.10;;;;;;5045601;28;20044;-85
2021/04/24 08:19:29;;;;;;;11.57;4.50;;;27.20;44.30;;;;;;5045307;28;20313;-85
2021/04/24 08:21:56;;;;;;;7.43;4.30;;;26.40;43.70;;;;;;5045342;28;20484;-84
2021/04/24 08:24:22;;;;;;;6.70;3.83;;;25.60;43.90;;;;;;5045623;28;20029;-86
2021/04/24 08:26:48;;;;;;;9.95;4.55;;;24.90;43.80;;;;;;5047145;28;20112;-85
2021/04/24 08:29:13;;;;;;;7.22;3.88;;;24.20;43.80;;;;;;5028988;28;20115;-85
2021/04/24 08:31:42;;;;;;;9.63;4.45;;;23.50;43.90;;;;;;5012477;28;20495;-85
2021/04/24 08:34:08;;;;;;;10.50;4.47;;;23.30;44.70;;;;;;5045629;28;20021;-84
2021/04/24 08:36:34;;;;;;;12.07;5.25;;;23.40;44.80;;;;;;5012634;28;20387;-86
2021/04/24 08:38:59;;;;;;;12.98;4.47;;;23.40;44.40;;;;;;5028537;28;20029;-84
2021/04/24 08:41:25;;;;;;;7.30;4.10;;;23.20;44.10;;;;;;5028460;28;20107;-85
2021/04/24 08:43:56;;;;;;;9.18;4.00;;;23.10;44.20;;;;;;5045578;28;20129;-85
2021/04/24 08:46:23;;;;;;;15.45;5.25;;;23.20;44.00;;;;;;5045695;28;20451;-86
2021/04/24 08:48:56;;;;;;;12.20;4.07;;;23.60;44.10;;;;;;5046789;28;20483;-85
2021/04/24 08:51:25;;;;;;;10.07;4.13;;;24.10;44.00;;;;;;5046394;28;20037;-84
2021/04/24 08:53:51;;;;;;;10.98;4.03;;;25.00;44.00;;;;;;5046542;28;20025;-87
2021/04/24 08:56:18;;;;;;;7.28;3.78;;;26.00;43.30;;;;;;5029072;28;20060;-84
2021/04/24 08:58:45;;;;;;;9.75;4.68;;;26.90;42.90;;;;;;5045216;28;20033;-86
2021/04/24 09:01:11;;;;;;;10.02;4.65;;;27.90;41.80;;;;;;5012360;28;20116;-84
2021/04/24 09:03:37;;;;;;;12.48;4.68;;;28.70;40.80;;;;;;5031915;28;20036;-75
2021/04/24 09:06:03;;;;;;;12.50;4.68;;;29.10;40.10;;;;;;5049866;28;20105;-76
2021/04/24 09:08:30;;;;;;;8.60;4.63;;;29.50;39.60;;;;;;5050074;28;20471;-76
2021/04/24 09:10:58;;;;;;;12.43;4.13;;;29.90;38.60;;;;;;5049670;28;20029;-84
2021/04/24 09:13:26;;;;;;;10.50;4.68;;;30.20;38.30;;;;;;5049914;28;20021;-85
2021/04/24 09:15:53;;;;;;;13.50;5.15;;;30.30;37.50;;;;;;5048717;28;20468;-84
2021/04/24 09:18:20;;;;;;;13.68;4.95;;;30.30;37.30;;;;;;5015914;28;20028;-85
2021/04/24 09:20:51;;;;;;;10.15;5.10;;;30.20;37.10;;;;;;5050189;28;20053;-83
2021/04/24 09:23:22;;;;;;;14.45;4.68;;;30.40;37.10;;;;;;5047815;28;20021;-82
2021/04/24 09:25:58;;;;;;;8.18;4.60;;;31.00;37.00;;;;;;5048299;28;20491;-81
2021/04/24 09:28:39;;;;;;;11.93;5.10;;;31.40;36.80;;;;;;5049430;28;20113;-82
2021/04/24 09:31:23;;;;;;;12.50;6.03;;;32.00;36.60;;;;;;5048029;28;20021;-82
2021/04/24 09:33:57;;;;;;;9.82;6.22;;;32.40;35.80;;;;;;5048089;28;20088;-83
2021/04/24 09:36:44;;;;;;;9.48;5.97;;;32.70;35.40;;;;;;5050137;28;20050;-83
2021/04/24 09:39:10;;;;;;;11.70;5.88;;;32.80;35.10;;;;;;5048922;28;20044;-81
2021/04/24 09:41:43;;;;;;;8.93;5.45;;;33.00;35.10;;;;;;5031049;28;20073;-84
2021/04/24 09:44:16;;;;;;;9.55;6.25;;;33.20;34.50;;;;;;5049901;28;20025;-78
2021/04/24 09:46:48;;;;;;;9.65;6.10;;;33.30;34.20;;;;;;5047976;28;20027;-83
2021/04/24 09:49:29;;;;;;;15.75;5.75;;;33.20;33.80;;;;;;5047695;28;20017;-78
2021/04/24 09:52:03;;;;;;;9.55;5.97;;;33.20;33.40;;;;;;5048420;28;20021;-83
2021/04/24 09:54:32;;;;;;;15.50;7.28;;;33.10;33.50;;;;;;5046962;28;20112;-82
2021/04/24 09:57:02;;;;;;;10.95;8.00;;;33.10;33.10;;;;;;5047559;28;20064;-83
2021/04/24 09:59:29;;;;;;;11.20;6.20;;;32.80;33.00;;;;;;5047250;28;20055;-83
2021/04/24 10:01:58;;;;;;;14.02;6.78;;;32.80;33.50;;;;;;5030725;28;20029;-83
2021/04/24 10:04:24;;;;;;;12.13;5.90;;;33.10;33.30;;;;;;5047425;28;20075;-83
2021/04/24 10:06:53;;;;;;;11.80;7.85;;;33.40;33.10;;;;;;5047509;28;20025;-85
2021/04/24 10:09:28;;;;;;;15.00;6.80;;;33.40;32.90;;;;;;5047214;28;20021;-85
2021/04/24 10:12:00;;;;;;;11.23;7.47;;;33.40;32.40;;;;;;5048934;28;20028;-84
2021/04/24 10:14:34;;;;;;;11.20;6.55;;;33.30;32.50;;;;;;5048398;28;20025;-82
2021/04/24 10:17:02;;;;;;;12.85;7.90;;;33.30;32.10;;;;;;5046938;28;20074;-83
2021/04/24 10:19:31;;;;;;;10.38;6.60;;;33.10;31.70;;;;;;5030443;28;20029;-84
2021/04/24 10:21:57;;;;;;;11.88;7.57;;;32.90;31.80;;;;;;5046921;28;20025;-82
2021/04/24 10:24:26;;;;;;;14.48;8.45;;;32.70;31.60;;;;;;5030124;28;20033;-82
2021/04/24 10:26:52;;;;;;;13.48;7.38;;;32.60;31.50;;;;;;5048369;28;20036;-84
2021/04/24 10:29:19;;;;;;;11.80;8.07;;;32.60;31.70;;;;;;5046316;28;20025;-83
2021/04/24 10:31:45;;;;;;;10.20;7.25;;;32.70;31.50;;;;;;5047833;28;20490;-83
2021/04/24 10:34:12;;;;;;;11.98;8.20;;;32.60;31.20;;;;;;5048204;28;20029;-84
2021/04/24 10:36:38;;;;;;;22.80;8.63;;;32.60;31.10;;;;;;5046357;28;20136;-84
2021/04/24 10:39:17;;;;;;;13.40;8.35;;;32.30;31.30;;;;;;5047059;28;20101;-83
2021/04/24 10:41:48;;;;;;;17.98;9.23;;;32.10;31.90;;;;;;5047617;28;20100;-81
2021/04/24 10:44:15;;;;;;;14.93;10.52;;;32.10;31.30;;;;;;5049077;28;20021;-85
2021/04/24 10:46:57;;;;;;;13.32;10.02;;;32.00;31.00;;;;;;5030282;28;20032;-83
2021/04/24 10:49:24;;;;;;;18.10;11.43;;;31.70;30.90;;;;;;5046722;28;20025;-84
2021/04/24 10:51:52;;;;;;;15.25;11.10;;;31.40;30.80;;;;;;5046356;28;20049;-84
2021/04/24 10:54:18;;;;;;;16.30;10.32;;;31.20;30.70;;;;;;5046716;28;20025;-84
2021/04/24 10:56:44;;;;;;;15.65;10.88;;;30.90;31.00;;;;;;5046831;28;20450;-84
2021/04/24 10:59:27;;;;;;;16.90;12.85;;;31.00;31.60;;;;;;5013554;28;20124;-86
2021/04/24 11:02:03;;;;;;;15.68;11.50;;;31.30;31.00;;;;;;5029939;28;20377;-85
2021/04/24 11:04:52;;;;;;;15.38;11.48;;;31.40;31.20;;;;;;5048086;28;20036;-84
2021/04/24 11:07:23;;;;;;;17.60;12.52;;;31.80;31.60;;;;;;5023876;28;20124;-83
2021/04/24 11:10:13;;;;;;;15.82;10.65;;;31.90;31.10;;;;;;5047604;28;20305;-83
2021/04/24 11:12:47;;;;;;;17.42;11.68;;;31.80;30.60;;;;;;5025960;28;20029;-82
2021/04/24 11:15:16;;;;;;;17.52;12.85;;;31.40;30.30;;;;;;5046540;28;20491;-85
2021/04/24 11:17:43;;;;;;;18.52;12.07;;;31.10;30.30;;;;;;5045697;28;20032;-82
2021/04/24 11:20:11;;;;;;;17.33;12.15;;;30.90;30.40;;;;;;5045244;28;20056;-74
2021/04/24 11:22:39;;;;;;;18.52;11.80;;;30.80;30.40;;;;;;5046183;28;20033;-83
2021/04/24 11:25:23;;;;;;;18.65;12.38;;;30.80;30.50;;;;;;5044741;28;20035;-84
2021/04/24 11:28:02;;;;;;;17.85;12.55;;;30.70;30.70;;;;;;5047211;28;20071;-84
2021/04/24 11:30:47;;;;;;;15.32;12.13;;;31.10;30.40;;;;;;5045568;28;20479;-84
2021/04/24 11:33:34;;;;;;;18.60;12.38;;;31.40;30.70;;;;;;5047044;28;20045;-84
2021/04/24 11:38:55;;;;;;;17.63;12.50;;;31.70;30.20;;;;;;5046839;28;20095;-84
2021/04/24 11:41:45;;;;;;;19.38;12.75;;;31.80;30.30;;;;;;5047020;28;20024;-85
2021/04/24 11:44:24;;;;;;;18.02;11.48;;;31.70;30.60;;;;;;5048562;28;20050;-85
2021/04/24 11:46:53;;;;;;;18.88;11.65;;;31.90;30.10;;;;;;5048335;28;20086;-85
2021/04/24 11:49:24;;;;;;;19.45;12.35;;;31.90;30.10;;;;;;5047786;28;20017;-83
2021/04/24 11:51:52;;;;;;;19.58;12.00;;;32.10;30.10;;;;;;5044638;28;20280;-82
2021/04/24 11:54:32;;;;;;;14.70;11.02;;;32.40;30.40;;;;;;5045928;28;20031;-86
2021/04/24 11:57:01;;;;;;;20.08;12.30;;;32.70;29.90;;;;;;5046943;28;20095;-83
2021/04/24 11:59:29;;;;;;;20.65;14.18;;;32.90;29.70;;;;;;5029104;28;20048;-86
2021/04/24 12:02:01;;;;;;;16.58;11.30;;;32.70;29.80;;;;;;5046079;28;20021;-84
2021/04/24 12:04:37;;;;;;;11.38;7.57;;;32.50;29.70;;;;;;5045853;28;20033;-84
2021/04/24 12:07:14;;;;;;;12.30;9.50;;;32.30;29.50;;;;;;5045877;28;20448;-86
2021/04/24 12:09:51;;;;;;;10.63;8.05;;;32.10;28.90;;;;;;5044822;28;20066;-85
2021/04/24 12:12:19;;;;;;;12.18;7.45;;;31.80;28.80;;;;;;5046311;28;20025;-84
2021/04/24 12:14:45;;;;;;;15.02;8.73;;;31.80;29.20;;;;;;5045469;28;20029;-86
2021/04/24 12:17:14;;;;;;;11.90;7.55;;;31.70;29.10;;;;;;5028626;28;20216;-86
2021/04/24 12:19:42;;;;;;;12.77;6.35;;;31.60;29.30;;;;;;5045070;28;20021;-85
2021/04/24 12:22:22;;;;;;;8.77;5.45;;;31.50;28.90;;;;;;5045062;28;20490;-85
2021/04/24 12:25:00;;;;;;;12.82;6.00;;;31.20;28.80;;;;;;5046887;28;20021;-84
2021/04/24 12:27:35;;;;;;;10.48;6.22;;;31.00;28.90;;;;;;5046673;28;20430;-84
2021/04/24 12:30:09;;;;;;;16.98;6.22;;;30.90;29.10;;;;;;5044208;28;20113;-86
2021/04/24 12:32:40;;;;;;;10.65;5.43;;;30.90;29.40;;;;;;5045750;28;20052;-84
2021/04/24 12:35:16;;;;;;;9.75;6.13;;;30.80;29.20;;;;;;5046047;28;20055;-84
2021/04/24 12:37:43;;;;;;;8.57;5.80;;;30.60;29.30;;;;;;5051302;28;20029;-85
2021/04/24 12:40:23;;;;;;;11.98;5.88;;;30.50;29.50;;;;;;5049722;28;20060;-85
2021/04/24 12:42:49;;;;;;;11.38;5.70;;;30.30;29.40;;;;;;5048409;28;20064;-85
2021/04/24 12:45:19;;;;;;;18.50;5.30;;;30.10;29.60;;;;;;5049385;28;20025;-85